Time;durP1;ratioP1;P1;durP2;ratioP2;P2;SDS_P1;SDS_P2;PMS_P1;PMS_P2;Temp;Humidity;BMP_temperature;BMP_pressure;BME280_temperature;BME280_humidity;BME280_pressure;Samples;Min_cycle;Max_cycle;Signal;HPM_P1;HPM_P2
2021/03/10 00:00:06;;;;;;;27.37;18.80;;;3.50;93.40;;;;;;5008039;28;20204;-88
2021/03/10 00:02:32;;;;;;;25.43;18.07;;;3.40;94.10;;;;;;4983037;28;20233;-88
2021/03/10 00:04:59;;;;;;;22.60;17.23;;;3.40;94.70;;;;;;5011635;28;20292;-88
2021/03/10 00:07:25;;;;;;;25.00;18.67;;;3.50;94.20;;;;;;5006462;28;20235;-88
2021/03/10 00:09:52;;;;;;;22.87;17.73;;;3.70;94.00;;;;;;5021481;28;20198;-87
2021/03/10 00:12:19;;;;;;;24.03;18.20;;;3.80;93.90;;;;;;5001165;28;20224;-88
2021/03/10 00:14:46;;;;;;;23.27;17.70;;;3.80;93.70;;;;;;4990772;28;20204;-86
2021/03/10 00:17:12;;;;;;;24.67;17.90;;;3.90;93.60;;;;;;4973135;28;20244;-87
2021/03/10 00:19:39;;;;;;;25.10;17.73;;;3.90;93.30;;;;;;5003491;28;20197;-87
2021/03/10 00:22:05;;;;;;;24.10;17.87;;;4.00;93.40;;;;;;4982609;28;20228;-87
2021/03/10 00:24:32;;;;;;;23.60;17.40;;;4.00;93.20;;;;;;4979838;28;20204;-86
2021/03/10 00:26:58;;;;;;;22.17;17.03;;;4.00;93.10;;;;;;4989732;28;20316;-88
2021/03/10 00:29:25;;;;;;;25.90;18.23;;;4.00;93.10;;;;;;4982244;28;20491;-87
2021/03/10 00:31:52;;;;;;;24.17;18.43;;;4.00;93.10;;;;;;5001788;28;20593;-88
2021/03/10 00:34:18;;;;;;;25.80;18.20;;;4.00;93.10;;;;;;5010926;28;20236;-88
2021/03/10 00:36:45;;;;;;;23.80;18.00;;;4.00;93.30;;;;;;4981046;28;20244;-87
2021/03/10 00:39:11;;;;;;;23.87;17.70;;;4.00;93.30;;;;;;4999366;28;20247;-87
2021/03/10 00:41:38;;;;;;;23.50;17.93;;;4.00;93.00;;;;;;4988338;28;20221;-87
2021/03/10 00:44:04;;;;;;;24.03;18.23;;;4.10;93.00;;;;;;5008595;28;20280;-88
2021/03/10 00:46:32;;;;;;;25.33;17.63;;;3.90;93.10;;;;;;5020240;28;20242;-87
2021/03/10 00:48:59;;;;;;;23.40;18.03;;;4.00;93.40;;;;;;5030438;28;20220;-88
2021/03/10 00:51:25;;;;;;;24.73;18.10;;;3.90;93.10;;;;;;4991099;28;20373;-86
2021/03/10 00:53:52;;;;;;;25.80;18.60;;;3.90;93.30;;;;;;5014791;28;20301;-87
2021/03/10 00:56:18;;;;;;;25.40;18.93;;;3.90;93.50;;;;;;5018529;28;20547;-87
2021/03/10 00:58:44;;;;;;;25.83;18.57;;;3.80;93.20;;;;;;5009245;28;20205;-88
2021/03/10 01:01:12;;;;;;;23.30;18.53;;;3.70;93.50;;;;;;5022793;28;20236;-89
2021/03/10 01:03:39;;;;;;;24.40;17.83;;;3.70;93.40;;;;;;5005391;28;20213;-88
2021/03/10 01:06:06;;;;;;;25.27;18.60;;;3.70;93.50;;;;;;4981093;28;20640;-87
2021/03/10 01:08:32;;;;;;;25.70;18.30;;;3.50;93.50;;;;;;4986361;28;20198;-88
2021/03/10 01:10:58;;;;;;;23.43;17.73;;;3.50;93.80;;;;;;4970104;28;20317;-88
2021/03/10 01:13:25;;;;;;;25.43;18.97;;;3.50;93.70;;;;;;5012185;28;20262;-88
2021/03/10 01:15:52;;;;;;;27.20;19.40;;;3.50;93.80;;;;;;4972861;28;21710;-91
2021/03/10 01:18:18;;;;;;;25.17;18.23;;;3.40;93.90;;;;;;4973803;28;20587;-86
2021/03/10 01:20:45;;;;;;;25.87;18.93;;;3.40;94.00;;;;;;5011848;28;20213;-88
2021/03/10 01:23:12;;;;;;;25.90;18.63;;;3.40;94.10;;;;;;5002074;28;20567;-88
2021/03/10 01:25:38;;;;;;;25.27;18.67;;;3.40;94.20;;;;;;4986179;28;20206;-89
2021/03/10 01:28:05;;;;;;;24.83;18.47;;;3.40;94.30;;;;;;4974747;28;20373;-88
2021/03/10 01:30:31;;;;;;;22.63;18.37;;;3.40;94.20;;;;;;4977739;28;20201;-89
2021/03/10 01:32:58;;;;;;;25.20;19.07;;;3.40;94.60;;;;;;5007276;28;20267;-90
2021/03/10 01:35:24;;;;;;;24.43;19.07;;;3.30;94.70;;;;;;4996717;28;20201;-90
2021/03/10 01:37:51;;;;;;;25.43;19.27;;;3.20;94.70;;;;;;4984815;28;20593;-88
2021/03/10 01:40:19;;;;;;;24.93;18.53;;;3.20;94.70;;;;;;4979548;28;20412;-88
2021/03/10 01:42:45;;;;;;;25.13;19.20;;;3.30;94.70;;;;;;4971615;28;20302;-89
2021/03/10 01:45:13;;;;;;;26.40;18.37;;;3.40;94.50;;;;;;5027816;28;20547;-88
2021/03/10 01:47:41;;;;;;;26.97;19.17;;;3.50;94.10;;;;;;5013043;28;20229;-88
2021/03/10 01:50:09;;;;;;;25.30;19.10;;;3.40;94.30;;;;;;4985449;28;20196;-87
2021/03/10 01:52:36;;;;;;;24.03;18.20;;;3.40;94.70;;;;;;4992328;28;20589;-88
2021/03/10 01:55:04;;;;;;;26.60;18.70;;;3.30;94.70;;;;;;4981354;28;20566;-88
2021/03/10 01:57:30;;;;;;;24.87;18.80;;;3.30;94.70;;;;;;4981587;28;20283;-91
2021/03/10 01:59:57;;;;;;;26.40;19.13;;;3.40;94.70;;;;;;5008205;28;20209;-88
2021/03/10 02:02:24;;;;;;;25.43;18.67;;;3.50;94.30;;;;;;4981277;28;20234;-88
2021/03/10 02:04:50;;;;;;;26.17;19.10;;;3.50;94.30;;;;;;4974146;28;20205;-91
2021/03/10 02:07:26;;;;;;;27.43;19.77;;;3.50;94.40;;;;;;5018520;28;20234;-89
2021/03/10 02:10:03;;;;;;;26.20;19.23;;;3.40;94.80;;;;;;5037144;28;20199;-91
2021/03/10 02:12:40;;;;;;;28.30;19.50;;;3.40;94.70;;;;;;5009229;28;20232;-88
2021/03/10 02:15:12;;;;;;;27.03;19.70;;;3.40;94.70;;;;;;4980125;28;20201;-88
2021/03/10 02:17:45;;;;;;;25.17;18.90;;;3.30;94.70;;;;;;4991468;28;20232;-88
2021/03/10 02:20:28;;;;;;;27.47;19.83;;;3.20;94.70;;;;;;4996837;28;20200;-91
2021/03/10 02:23:12;;;;;;;26.70;19.90;;;3.30;95.20;;;;;;4970985;28;20243;-88
2021/03/10 02:25:49;;;;;;;26.73;19.73;;;3.30;94.70;;;;;;4996143;28;20292;-88
2021/03/10 02:28:17;;;;;;;25.47;18.93;;;3.40;94.70;;;;;;4990218;28;20204;-89
2021/03/10 02:30:45;;;;;;;26.70;21.03;;;3.40;94.70;;;;;;4986146;28;20226;-88
2021/03/10 02:33:13;;;;;;;28.57;20.60;;;3.40;94.70;;;;;;4986061;28;20272;-87
2021/03/10 02:35:44;;;;;;;27.33;20.60;;;3.40;95.00;;;;;;4984205;28;20276;-92
2021/03/10 02:38:16;;;;;;;28.27;20.67;;;3.40;94.70;;;;;;5010374;28;20182;-91
2021/03/10 02:40:42;;;;;;;27.23;20.73;;;3.40;94.70;;;;;;5016403;28;20679;-88
2021/03/10 02:43:09;;;;;;;26.80;20.67;;;3.40;94.70;;;;;;4994850;28;20771;-88
2021/03/10 02:45:37;;;;;;;27.97;20.83;;;3.30;94.80;;;;;;5010074;28;20725;-89
2021/03/10 02:48:06;;;;;;;27.60;20.97;;;3.20;95.00;;;;;;4963930;28;20205;-88
2021/03/10 02:50:34;;;;;;;29.27;21.30;;;3.30;95.00;;;;;;4986454;28;20197;-88
2021/03/10 02:53:04;;;;;;;29.23;21.90;;;3.30;95.00;;;;;;5014428;28;20534;-88
2021/03/10 02:55:31;;;;;;;29.73;21.67;;;3.30;95.30;;;;;;5006262;28;20566;-89
2021/03/10 02:57:59;;;;;;;29.93;21.37;;;3.40;95.10;;;;;;5012466;28;20708;-88
2021/03/10 03:00:25;;;;;;;30.23;22.77;;;3.30;94.80;;;;;;4990453;28;20233;-89
2021/03/10 03:02:53;;;;;;;29.23;22.07;;;3.40;95.30;;;;;;4997860;28;20905;-88
2021/03/10 03:05:19;;;;;;;28.50;21.37;;;3.40;95.10;;;;;;5009508;28;20197;-89
2021/03/10 03:07:47;;;;;;;31.57;22.43;;;3.50;95.10;;;;;;4967847;28;20225;-87
2021/03/10 03:10:16;;;;;;;30.43;22.43;;;3.40;94.70;;;;;;4994903;28;20201;-87
2021/03/10 03:12:44;;;;;;;30.83;22.80;;;3.50;94.70;;;;;;4994956;28;20224;-88
2021/03/10 03:15:14;;;;;;;33.13;23.03;;;3.50;94.80;;;;;;5007432;28;20258;-89
2021/03/10 03:17:41;;;;;;;29.20;21.90;;;3.40;94.70;;;;;;4975864;28;20224;-89
2021/03/10 03:20:10;;;;;;;32.80;22.27;;;3.50;94.80;;;;;;5013172;28;20228;-90
2021/03/10 03:22:43;;;;;;;30.90;23.70;;;3.40;94.70;;;;;;5002964;28;20233;-87
2021/03/10 03:25:12;;;;;;;33.53;23.70;;;3.40;94.70;;;;;;4998595;28;20204;-89
2021/03/10 03:27:40;;;;;;;31.57;23.40;;;3.40;95.20;;;;;;4983068;28;20232;-87
2021/03/10 03:30:09;;;;;;;31.70;23.47;;;3.40;94.80;;;;;;5003247;28;20196;-87
2021/03/10 03:32:38;;;;;;;32.57;24.00;;;3.30;94.90;;;;;;4989487;28;20756;-87
2021/03/10 03:35:06;;;;;;;31.07;23.43;;;3.30;94.90;;;;;;4974703;28;20263;-88
2021/03/10 03:37:34;;;;;;;30.47;23.87;;;3.30;95.70;;;;;;5008959;28;20217;-88
2021/03/10 03:40:00;;;;;;;30.60;23.10;;;3.30;95.50;;;;;;4973110;28;20515;-88
2021/03/10 03:42:27;;;;;;;32.87;24.03;;;3.30;95.60;;;;;;4988864;28;20224;-89
2021/03/10 03:44:53;;;;;;;32.10;23.57;;;3.40;95.50;;;;;;4992922;28;20459;-88
2021/03/10 03:47:20;;;;;;;31.40;23.37;;;3.40;95.20;;;;;;4980949;28;20236;-87
2021/03/10 03:49:48;;;;;;;34.20;24.57;;;3.50;94.80;;;;;;4990186;28;20208;-88
2021/03/10 03:52:14;;;;;;;32.93;24.37;;;3.50;95.40;;;;;;4982757;28;20230;-88
2021/03/10 03:54:42;;;;;;;36.37;24.53;;;3.40;95.10;;;;;;5007551;28;20209;-89
2021/03/10 03:57:08;;;;;;;33.87;24.83;;;3.40;95.30;;;;;;4985880;28;20229;-87
2021/03/10 03:59:35;;;;;;;35.43;25.80;;;3.40;95.20;;;;;;5011540;28;20205;-88
2021/03/10 04:02:01;;;;;;;34.33;25.40;;;3.40;95.00;;;;;;4988056;28;20596;-88
2021/03/10 04:04:28;;;;;;;33.00;25.30;;;3.50;95.20;;;;;;5011315;28;20194;-87
2021/03/10 04:06:54;;;;;;;35.93;25.83;;;3.50;95.00;;;;;;4976783;28;20224;-87
2021/03/10 04:09:20;;;;;;;33.57;25.10;;;3.40;95.20;;;;;;4981730;28;20635;-86
2021/03/10 04:11:49;;;;;;;33.93;25.13;;;3.50;95.50;;;;;;5016011;28;20347;-86
2021/03/10 04:14:16;;;;;;;34.67;26.13;;;3.50;95.50;;;;;;4992846;28;20582;-87
2021/03/10 04:16:43;;;;;;;33.23;24.23;;;3.40;95.40;;;;;;4977222;28;20653;-88
2021/03/10 04:19:10;;;;;;;33.20;24.83;;;3.50;95.30;;;;;;4978993;28;20205;-87
2021/03/10 04:21:37;;;;;;;34.47;25.87;;;3.50;95.20;;;;;;4979118;28;20232;-88
2021/03/10 04:24:04;;;;;;;34.40;25.90;;;3.60;95.10;;;;;;4986375;28;20484;-86
2021/03/10 04:26:31;;;;;;;36.13;26.27;;;3.60;95.10;;;;;;4972408;28;20221;-86
2021/03/10 04:28:58;;;;;;;36.90;26.43;;;3.60;95.30;;;;;;4993615;28;20215;-88
2021/03/10 04:31:25;;;;;;;34.33;25.83;;;3.70;94.80;;;;;;4970965;28;20239;-89
2021/03/10 04:33:51;;;;;;;37.00;26.73;;;3.50;94.80;;;;;;5006895;28;20575;-87
2021/03/10 04:36:17;;;;;;;37.73;27.07;;;3.60;95.30;;;;;;4988239;28;20216;-86
2021/03/10 04:38:44;;;;;;;36.30;25.77;;;3.70;95.00;;;;;;4969195;28;20295;-87
2021/03/10 04:41:10;;;;;;;38.60;26.17;;;3.80;94.80;;;;;;4978874;28;20746;-90
2021/03/10 04:43:36;;;;;;;39.93;28.23;;;3.70;94.80;;;;;;4987172;28;20526;-88
2021/03/10 04:46:04;;;;;;;37.10;27.43;;;3.60;94.80;;;;;;4987075;28;20311;-88
2021/03/10 04:48:30;;;;;;;36.63;27.67;;;3.60;94.80;;;;;;5013205;28;20292;-86
2021/03/10 04:50:57;;;;;;;38.60;28.47;;;3.50;95.00;;;;;;4998222;28;20284;-86
2021/03/10 04:53:23;;;;;;;36.97;26.80;;;3.50;95.10;;;;;;5031302;28;20204;-87
2021/03/10 04:55:49;;;;;;;41.47;29.33;;;3.60;95.50;;;;;;5003294;28;20236;-90
2021/03/10 04:58:16;;;;;;;38.40;28.13;;;3.50;95.50;;;;;;5011823;28;20262;-88
2021/03/10 05:00:43;;;;;;;39.70;28.50;;;3.60;95.20;;;;;;4977877;28;20308;-88
2021/03/10 05:03:11;;;;;;;40.27;28.10;;;3.50;95.10;;;;;;4995536;28;20221;-89
2021/03/10 05:05:37;;;;;;;41.13;27.83;;;3.60;95.20;;;;;;4987766;28;20554;-88
2021/03/10 05:08:04;;;;;;;43.03;29.67;;;3.60;95.30;;;;;;4979999;28;20203;-87
2021/03/10 05:10:30;;;;;;;42.00;30.00;;;3.50;95.10;;;;;;4993368;28;20563;-88
2021/03/10 05:12:57;;;;;;;39.93;29.03;;;3.40;95.60;;;;;;4972326;28;20203;-87
2021/03/10 05:15:23;;;;;;;42.60;30.67;;;3.40;95.80;;;;;;5035796;28;20686;-87
2021/03/10 05:17:51;;;;;;;45.60;30.63;;;3.30;96.00;;;;;;4993602;28;20316;-87
2021/03/10 05:20:19;;;;;;;41.13;29.47;;;3.40;95.70;;;;;;4991089;28;20265;-87
2021/03/10 05:22:45;;;;;;;40.60;29.43;;;3.40;96.10;;;;;;5008823;28;20233;-87
2021/03/10 05:25:12;;;;;;;42.63;30.33;;;3.40;96.00;;;;;;5014079;28;20270;-87
2021/03/10 05:27:39;;;;;;;38.87;28.07;;;3.40;96.10;;;;;;5004852;28;20224;-87
2021/03/10 05:30:08;;;;;;;42.47;29.97;;;3.50;95.90;;;;;;4977272;28;20215;-87
2021/03/10 05:32:34;;;;;;;43.23;31.33;;;3.40;95.90;;;;;;4974016;28;20546;-87
2021/03/10 05:35:01;;;;;;;40.17;28.50;;;3.40;95.90;;;;;;5012562;28;20201;-89
2021/03/10 05:37:28;;;;;;;45.33;30.13;;;3.40;96.00;;;;;;5009010;28;20228;-88
2021/03/10 05:39:55;;;;;;;43.10;31.23;;;3.50;95.80;;;;;;4997222;28;20204;-87
2021/03/10 05:42:21;;;;;;;43.70;30.73;;;3.50;96.10;;;;;;4994019;28;20235;-89
2021/03/10 05:44:50;;;;;;;44.63;30.37;;;3.40;95.80;;;;;;4975577;28;20254;-88
2021/03/10 05:47:17;;;;;;;44.17;28.70;;;3.40;96.20;;;;;;4995166;28;20226;-89
2021/03/10 05:49:45;;;;;;;40.87;28.93;;;3.50;95.90;;;;;;5004669;28;20204;-88
2021/03/10 05:52:11;;;;;;;40.43;28.57;;;3.60;95.60;;;;;;5023363;28;20684;-88
2021/03/10 05:54:42;;;;;;;40.60;28.97;;;3.60;95.60;;;;;;4991922;28;20586;-86
2021/03/10 05:57:10;;;;;;;38.67;27.03;;;3.60;95.40;;;;;;4997894;28;20564;-87
2021/03/10 05:59:37;;;;;;;38.93;28.17;;;3.60;95.10;;;;;;5007471;28;20198;-87
2021/03/10 06:02:04;;;;;;;39.40;29.07;;;3.60;95.00;;;;;;4963111;28;20315;-88
2021/03/10 06:04:40;;;;;;;42.10;30.20;;;3.50;95.30;;;;;;4977431;28;20201;-87
2021/03/10 06:07:17;;;;;;;38.97;26.67;;;3.50;95.70;;;;;;4981909;28;20617;-89
2021/03/10 06:09:55;;;;;;;42.30;29.13;;;3.60;95.50;;;;;;4989026;28;20216;-88
2021/03/10 06:12:21;;;;;;;40.40;28.30;;;3.50;95.10;;;;;;5014016;28;20214;-87
2021/03/10 06:14:58;;;;;;;38.53;27.40;;;3.60;95.20;;;;;;5008454;28;20210;-86
2021/03/10 06:17:25;;;;;;;38.07;26.90;;;3.60;95.40;;;;;;4993410;28;20220;-88
2021/03/10 06:19:51;;;;;;;39.93;28.23;;;3.60;95.40;;;;;;4998847;28;20649;-86
2021/03/10 06:22:19;;;;;;;37.73;28.33;;;3.60;95.20;;;;;;4992602;28;20236;-87
2021/03/10 06:24:49;;;;;;;37.73;27.63;;;3.60;95.20;;;;;;4967995;28;20701;-87
2021/03/10 06:27:21;;;;;;;39.40;28.47;;;3.60;95.50;;;;;;4985596;28;20323;-87
2021/03/10 06:29:55;;;;;;;37.90;27.30;;;3.60;95.40;;;;;;4956268;28;20303;-88
2021/03/10 06:32:22;;;;;;;40.17;28.80;;;3.60;95.00;;;;;;4968834;28;20765;-87
2021/03/10 06:34:50;;;;;;;41.30;28.27;;;3.60;95.00;;;;;;4986744;28;20201;-87
2021/03/10 06:37:26;;;;;;;42.30;28.47;;;3.60;95.30;;;;;;4975290;28;20228;-86
2021/03/10 06:40:05;;;;;;;42.07;28.10;;;3.60;95.30;;;;;;4968744;28;20209;-86
2021/03/10 06:42:31;;;;;;;39.77;27.83;;;3.70;95.40;;;;;;4978845;28;20243;-88
2021/03/10 06:44:58;;;;;;;38.80;28.97;;;3.70;95.20;;;;;;4968163;28;20197;-86
2021/03/10 06:47:35;;;;;;;42.70;29.50;;;3.80;94.80;;;;;;5010222;28;20316;-85
2021/03/10 06:50:02;;;;;;;38.47;27.77;;;3.80;94.80;;;;;;4974124;28;20208;-86
2021/03/10 06:52:29;;;;;;;40.50;28.50;;;3.80;94.80;;;;;;4975663;28;20252;-85
2021/03/10 06:54:57;;;;;;;40.03;28.10;;;3.80;94.80;;;;;;4967195;28;20205;-87
2021/03/10 06:57:24;;;;;;;40.87;29.17;;;3.90;94.80;;;;;;4973057;28;20680;-88
2021/03/10 06:59:52;;;;;;;39.40;27.47;;;3.90;94.80;;;;;;4973597;28;20204;-87
2021/03/10 07:02:20;;;;;;;44.90;29.13;;;4.00;94.90;;;;;;4973800;28;20251;-87
2021/03/10 07:04:48;;;;;;;38.13;27.90;;;4.00;94.90;;;;;;4968791;28;20201;-88
2021/03/10 07:07:16;;;;;;;39.63;29.00;;;4.20;94.90;;;;;;4975269;28;20265;-88
2021/03/10 07:09:43;;;;;;;37.87;29.03;;;4.40;94.20;;;;;;4973322;28;20589;-91
2021/03/10 07:12:12;;;;;;;41.60;28.60;;;4.50;93.70;;;;;;4977172;28;20349;-92
2021/03/10 07:14:39;;;;;;;38.77;27.10;;;4.40;93.80;;;;;;4994038;28;20387;-90
2021/03/10 07:17:06;;;;;;;36.37;27.57;;;4.40;93.70;;;;;;4969296;28;20281;-89
2021/03/10 07:19:33;;;;;;;42.90;29.43;;;4.40;94.00;;;;;;4956755;28;20643;-90
2021/03/10 07:22:04;;;;;;;36.90;26.40;;;4.40;93.50;;;;;;4972248;28;20739;-90
2021/03/10 07:24:35;;;;;;;40.90;27.30;;;4.70;93.60;;;;;;4957105;28;20205;-90
2021/03/10 07:27:05;;;;;;;36.93;27.77;;;4.90;92.80;;;;;;4960166;28;20231;-90
2021/03/10 07:29:36;;;;;;;37.37;27.30;;;5.00;92.70;;;;;;4962666;28;20671;-89
2021/03/10 07:32:05;;;;;;;34.83;26.03;;;5.00;92.40;;;;;;4971056;28;20795;-90
2021/03/10 07:34:31;;;;;;;36.87;26.87;;;5.00;92.10;;;;;;4969406;28;20656;-89
2021/03/10 07:36:59;;;;;;;37.27;27.20;;;5.00;92.40;;;;;;4964402;28;20711;-89
2021/03/10 07:39:29;;;;;;;36.13;25.63;;;4.90;92.30;;;;;;4975720;28;20706;-91
2021/03/10 07:42:07;;;;;;;36.33;25.67;;;4.80;92.30;;;;;;4965162;28;20287;-91
2021/03/10 07:44:34;;;;;;;36.93;26.20;;;4.90;92.40;;;;;;4963326;28;20201;-89
2021/03/10 07:47:07;;;;;;;38.17;26.07;;;4.80;92.30;;;;;;4975832;28;20225;-88
2021/03/10 07:49:34;;;;;;;38.40;26.77;;;4.80;92.30;;;;;;4967804;28;20630;-93
2021/03/10 07:52:05;;;;;;;35.60;26.13;;;4.80;92.50;;;;;;4972006;28;20228;-89
2021/03/10 07:54:32;;;;;;;34.90;25.27;;;4.80;92.60;;;;;;4966250;28;20724;-89
2021/03/10 07:57:06;;;;;;;37.50;26.70;;;4.70;92.80;;;;;;4966199;28;20707;-89
2021/03/10 07:59:33;;;;;;;34.67;25.90;;;4.70;92.80;;;;;;4977085;28;20201;-90
2021/03/10 08:02:05;;;;;;;39.93;27.77;;;4.70;93.20;;;;;;4964787;28;20592;-90
2021/03/10 08:04:32;;;;;;;34.30;25.27;;;4.60;93.10;;;;;;4967839;28;20216;-89
2021/03/10 08:06:59;;;;;;;39.03;27.17;;;4.80;92.80;;;;;;4974246;28;20228;-89
2021/03/10 08:09:26;;;;;;;38.17;26.13;;;4.70;92.70;;;;;;4977972;28;20205;-88
2021/03/10 08:12:06;;;;;;;35.00;26.63;;;4.80;92.80;;;;;;4968276;28;20244;-88
2021/03/10 08:14:37;;;;;;;36.57;26.00;;;4.70;92.50;;;;;;4965239;28;20272;-85
2021/03/10 08:17:05;;;;;;;38.97;25.03;;;4.60;92.90;;;;;;4960536;28;20606;-84
2021/03/10 08:19:32;;;;;;;37.87;25.27;;;4.70;92.90;;;;;;4981054;28;20281;-87
2021/03/10 08:21:59;;;;;;;37.80;25.87;;;4.70;93.10;;;;;;4969490;28;20232;-89
2021/03/10 08:24:27;;;;;;;35.10;25.30;;;4.80;92.90;;;;;;4972052;28;20219;-87
2021/03/10 08:26:55;;;;;;;34.53;24.67;;;4.90;92.30;;;;;;4974033;28;20697;-87
2021/03/10 08:29:22;;;;;;;34.93;24.70;;;5.10;92.40;;;;;;4966178;28;20208;-86
2021/03/10 08:31:51;;;;;;;34.10;23.93;;;5.20;92.00;;;;;;4965994;28;20286;-86
2021/03/10 08:34:33;;;;;;;33.47;24.77;;;5.30;92.00;;;;;;4967676;28;20200;-87
2021/03/10 08:37:00;;;;;;;36.20;23.97;;;5.20;91.90;;;;;;4965122;28;20251;-89
2021/03/10 08:39:27;;;;;;;35.03;24.47;;;5.20;91.80;;;;;;4974875;28;20193;-87
2021/03/10 08:41:55;;;;;;;33.83;24.60;;;5.00;92.20;;;;;;4972122;28;20227;-86
2021/03/10 08:44:23;;;;;;;35.70;24.70;;;5.00;92.30;;;;;;4970037;28;20335;-88
2021/03/10 08:46:51;;;;;;;37.33;24.10;;;5.00;92.40;;;;;;4962796;28;20229;-87
2021/03/10 08:49:29;;;;;;;37.30;24.87;;;4.90;92.30;;;;;;4987643;28;20202;-89
2021/03/10 08:52:10;;;;;;;35.50;24.87;;;4.80;92.50;;;;;;4976988;28;20382;-89
2021/03/10 08:54:54;;;;;;;36.37;25.00;;;4.80;92.60;;;;;;4979349;28;20291;-89
2021/03/10 08:57:24;;;;;;;36.67;24.73;;;4.70;92.80;;;;;;4975078;28;20286;-86
2021/03/10 08:59:51;;;;;;;35.80;25.23;;;4.50;93.10;;;;;;4981204;28;20522;-86
2021/03/10 09:02:24;;;;;;;37.43;25.13;;;4.40;93.50;;;;;;4972590;28;20235;-85
2021/03/10 09:04:52;;;;;;;38.17;24.83;;;4.40;94.00;;;;;;4976506;28;20208;-87
2021/03/10 09:07:19;;;;;;;37.97;25.63;;;4.30;94.50;;;;;;4970788;28;20533;-85
2021/03/10 09:09:47;;;;;;;39.63;26.77;;;4.30;94.40;;;;;;4965217;28;20203;-86
2021/03/10 09:12:14;;;;;;;41.07;25.13;;;4.20;94.90;;;;;;4986578;28;20224;-86
2021/03/10 09:14:41;;;;;;;37.53;25.67;;;4.30;94.90;;;;;;4974863;28;20682;-86
2021/03/10 09:17:08;;;;;;;36.30;25.23;;;4.30;95.40;;;;;;4972153;28;20231;-87
2021/03/10 09:19:37;;;;;;;35.47;25.03;;;4.30;94.90;;;;;;4975388;28;20209;-88
2021/03/10 09:22:17;;;;;;;37.17;24.80;;;4.40;94.90;;;;;;4974735;28;20231;-86
2021/03/10 09:24:51;;;;;;;36.33;25.60;;;4.40;94.70;;;;;;4976722;28;20205;-86
2021/03/10 09:27:19;;;;;;;34.43;24.60;;;4.50;95.00;;;;;;4973582;28;20281;-86
2021/03/10 09:29:46;;;;;;;38.77;25.93;;;4.80;94.70;;;;;;4979253;28;20720;-85
2021/03/10 09:32:13;;;;;;;36.67;25.07;;;5.00;93.70;;;;;;4971301;28;20251;-84
2021/03/10 09:34:39;;;;;;;39.17;24.87;;;5.10;93.10;;;;;;4972171;28;20205;-86
2021/03/10 09:37:12;;;;;;;33.80;23.93;;;5.30;92.90;;;;;;4980396;28;20339;-86
2021/03/10 09:39:41;;;;;;;34.20;23.87;;;5.50;92.50;;;;;;4994229;28;20233;-89
2021/03/10 09:42:08;;;;;;;33.30;22.73;;;5.60;92.20;;;;;;4998859;28;20220;-86
2021/03/10 09:44:42;;;;;;;32.63;22.60;;;5.80;91.60;;;;;;4987436;28;20571;-87
2021/03/10 09:47:16;;;;;;;32.43;21.83;;;5.80;91.70;;;;;;4978475;28;20235;-87
2021/03/10 09:49:56;;;;;;;32.43;22.20;;;5.90;91.40;;;;;;4971733;28;20231;-87
2021/03/10 09:52:36;;;;;;;30.77;22.13;;;5.80;91.00;;;;;;4970727;28;20223;-88
2021/03/10 09:55:06;;;;;;;31.43;22.23;;;5.90;91.40;;;;;;4972021;28;20225;-87
2021/03/10 09:57:32;;;;;;;30.93;21.70;;;6.20;90.70;;;;;;4990884;28;20221;-87
2021/03/10 09:59:59;;;;;;;35.23;22.33;;;6.50;90.50;;;;;;4975209;28;20299;-88
2021/03/10 10:02:27;;;;;;;32.97;21.57;;;6.80;90.00;;;;;;4978061;28;20726;-90
2021/03/10 10:04:58;;;;;;;29.60;21.60;;;6.70;90.00;;;;;;4980767;28;20209;-90
2021/03/10 10:07:26;;;;;;;33.70;21.87;;;6.60;89.30;;;;;;4961905;28;20239;-90
2021/03/10 10:09:53;;;;;;;30.77;22.40;;;6.40;89.80;;;;;;4968430;28;20252;-89
2021/03/10 10:12:20;;;;;;;33.00;22.23;;;6.30;90.40;;;;;;4967258;28;20527;-89
2021/03/10 10:14:47;;;;;;;31.13;19.50;;;6.30;90.90;;;;;;4985718;28;20617;-87
2021/03/10 10:17:17;;;;;;;29.70;21.63;;;6.40;89.80;;;;;;4971054;28;20259;-87
2021/03/10 10:19:44;;;;;;;29.53;22.10;;;6.40;89.20;;;;;;4962747;28;20285;-88
2021/03/10 10:22:19;;;;;;;30.00;21.10;;;6.40;89.90;;;;;;4967863;28;20236;-90
2021/03/10 10:24:45;;;;;;;27.50;20.57;;;6.50;89.90;;;;;;4970828;28;20621;-91
2021/03/10 10:27:18;;;;;;;30.13;21.40;;;6.60;88.30;;;;;;4968399;28;20224;-95
2021/03/10 10:29:46;;;;;;;26.00;19.67;;;6.60;88.70;;;;;;4991868;28;20246;-89
2021/03/10 10:32:13;;;;;;;28.20;20.03;;;6.80;86.00;;;;;;4994095;28;20960;-90
2021/03/10 10:34:39;;;;;;;24.60;18.40;;;6.80;85.90;;;;;;4983114;28;20235;-91
2021/03/10 10:37:06;;;;;;;27.13;19.60;;;6.80;85.00;;;;;;4981430;28;20224;-90
2021/03/10 10:39:33;;;;;;;26.40;19.33;;;7.00;85.20;;;;;;4972212;28;20211;-90
2021/03/10 10:42:00;;;;;;;25.80;19.07;;;6.90;83.30;;;;;;4982687;28;20295;-89
2021/03/10 10:44:26;;;;;;;25.07;19.27;;;6.90;84.40;;;;;;4974807;28;20251;-88
2021/03/10 10:46:53;;;;;;;25.63;20.50;;;7.00;82.70;;;;;;4981811;28;20236;-90
2021/03/10 10:49:20;;;;;;;24.80;18.73;;;7.10;81.80;;;;;;4974290;28;20331;-88
2021/03/10 10:51:46;;;;;;;26.30;18.77;;;6.90;82.70;;;;;;4992381;28;20227;-89
2021/03/10 10:54:13;;;;;;;27.77;18.93;;;6.80;81.60;;;;;;4980988;28;20224;-89
2021/03/10 10:56:39;;;;;;;27.00;19.43;;;6.60;83.20;;;;;;4969401;28;20233;-89
2021/03/10 10:59:06;;;;;;;24.43;18.73;;;6.60;84.10;;;;;;4992967;28;20204;-91
2021/03/10 11:01:32;;;;;;;27.43;18.93;;;6.40;84.30;;;;;;4991756;28;20224;-91
2021/03/10 11:04:00;;;;;;;23.97;18.00;;;6.30;85.70;;;;;;4968794;28;20311;-90
2021/03/10 11:06:26;;;;;;;25.23;17.93;;;6.20;85.20;;;;;;4968063;28;20269;-89
2021/03/10 11:08:53;;;;;;;26.37;18.57;;;6.00;85.30;;;;;;4974540;28;20213;-90
2021/03/10 11:11:20;;;;;;;25.47;18.33;;;5.90;86.80;;;;;;4970036;28;20229;-90
2021/03/10 11:13:46;;;;;;;25.53;18.83;;;5.80;88.20;;;;;;4966693;28;20205;-90
2021/03/10 11:16:14;;;;;;;25.57;17.63;;;5.80;87.20;;;;;;4963234;28;20626;-92
2021/03/10 11:18:42;;;;;;;26.33;18.87;;;5.80;88.70;;;;;;4981741;28;20729;-90
2021/03/10 11:21:09;;;;;;;28.37;19.17;;;6.00;89.20;;;;;;4967554;28;20369;-89
2021/03/10 11:23:36;;;;;;;28.57;19.87;;;6.30;87.60;;;;;;4974078;28;20607;-90
2021/03/10 11:26:02;;;;;;;26.03;18.00;;;6.60;85.90;;;;;;4966138;28;20320;-88
2021/03/10 11:28:28;;;;;;;24.80;17.43;;;6.90;83.20;;;;;;4990286;28;20198;-90
2021/03/10 11:30:55;;;;;;;25.43;18.20;;;7.10;80.80;;;;;;4975265;28;20687;-88
2021/03/10 11:33:23;;;;;;;22.07;16.33;;;7.20;81.40;;;;;;4964000;28;20224;-88
2021/03/10 11:35:49;;;;;;;19.17;15.87;;;7.40;79.40;;;;;;4979902;28;20579;-87
2021/03/10 11:38:20;;;;;;;19.77;16.10;;;7.80;77.40;;;;;;4970166;28;20235;-91
2021/03/10 11:40:46;;;;;;;21.63;16.20;;;8.00;77.90;;;;;;4975916;28;20240;-89
2021/03/10 11:53:50;;;;;;;17.77;14.00;;;8.00;72.90;;;;;;4967378;28;20238;-92
2021/03/10 11:56:17;;;;;;;22.13;14.33;;;8.00;72.80;;;;;;4965415;28;20221;-92
2021/03/10 11:58:47;;;;;;;18.67;14.37;;;7.80;72.60;;;;;;4984805;28;20268;-93
2021/03/10 12:01:19;;;;;;;21.47;14.30;;;7.80;72.60;;;;;;4991867;28;20255;-91
2021/03/10 12:03:46;;;;;;;19.57;14.50;;;7.70;72.30;;;;;;4972426;28;20323;-91
2021/03/10 12:06:12;;;;;;;19.03;14.90;;;7.50;72.30;;;;;;4986847;28;20777;-89
2021/03/10 12:08:43;;;;;;;19.23;14.03;;;7.40;74.40;;;;;;4980499;28;20208;-89
2021/03/10 12:11:10;;;;;;;18.03;14.23;;;7.40;74.40;;;;;;4971984;28;20228;-91
2021/03/10 12:13:37;;;;;;;19.60;14.33;;;7.30;74.40;;;;;;4971561;28;20217;-91
2021/03/10 12:16:04;;;;;;;20.60;14.63;;;7.30;72.90;;;;;;4967033;28;20369;-91
2021/03/10 12:18:30;;;;;;;19.30;14.53;;;7.50;72.40;;;;;;4977310;28;20277;-93
2021/03/10 12:20:57;;;;;;;18.50;14.50;;;7.50;72.30;;;;;;4970754;28;20236;-91
2021/03/10 12:23:23;;;;;;;17.67;13.97;;;7.60;72.40;;;;;;4978752;28;20228;-90
2021/03/10 12:25:50;;;;;;;19.73;14.80;;;7.40;72.90;;;;;;4976201;28;20212;-92
2021/03/10 12:28:17;;;;;;;19.50;14.60;;;7.50;73.30;;;;;;4979823;28;20251;-90
2021/03/10 12:30:44;;;;;;;19.23;14.57;;;7.40;72.30;;;;;;4967856;28;20212;-91
2021/03/10 12:33:33;;;;;;;21.30;14.17;;;7.00;71.80;;;;;;4971231;28;20243;-92
2021/03/10 12:39:30;;;;;;;17.30;13.83;;;6.90;75.20;;;;;;5073654;28;20255;-91
2021/03/10 12:42:08;;;;;;;18.33;13.77;;;6.90;76.30;;;;;;5003003;28;20250;-92
2021/03/10 12:44:36;;;;;;;21.90;15.20;;;7.00;75.40;;;;;;4974086;28;20296;-88
2021/03/10 12:47:03;;;;;;;18.33;14.23;;;7.10;75.80;;;;;;4982998;28;20715;-90
2021/03/10 12:49:29;;;;;;;19.70;14.30;;;7.00;75.50;;;;;;4975900;28;20304;-90
2021/03/10 12:51:56;;;;;;;19.90;14.33;;;7.00;76.20;;;;;;4976258;28;20256;-90
2021/03/10 12:54:22;;;;;;;21.23;15.70;;;7.10;75.90;;;;;;4964968;28;20283;-91